sensor_id;sensor_type;location;lat;lon;timestamp;temperature;humidity
36586;DHT22;22591;48.314;11.562;2022-09-27T00:02:03;12.50;99.90
36586;DHT22;22591;48.314;11.562;2022-09-27T00:04:28;12.50;99.90
36586;DHT22;22591;48.314;11.562;2022-09-27T00:06:54;12.40;99.90
36586;DHT22;22591;48.314;11.562;2022-09-27T00:09:20;12.40;99.90
36586;DHT22;22591;48.314;11.562;2022-09-27T00:11:45;12.30;99.90
36586;DHT22;22591;48.314;11.562;2022-09-27T00:14:16;12.30;99.90
36586;DHT22;22591;48.314;11.562;2022-09-27T00:16:43;12.10;99.90
36586;DHT22;22591;48.314;11.562;2022-09-27T00:19:14;12.00;99.90
36586;DHT22;22591;48.314;11.562;2022-09-27T00:21:40;11.90;99.90
36586;DHT22;22591;48.314;11.562;2022-09-27T00:24:08;11.80;99.90
36586;DHT22;22591;48.314;11.562;2022-09-27T00:26:35;11.70;99.90
36586;DHT22;22591;48.314;11.562;2022-09-27T00:29:01;11.70;99.90
36586;DHT22;22591;48.314;11.562;2022-09-27T00:31:28;11.70;99.90
36586;DHT22;22591;48.314;11.562;2022-09-27T00:33:56;11.60;99.90
36586;DHT22;22591;48.314;11.562;2022-09-27T00:36:22;11.50;99.90
36586;DHT22;22591;48.314;11.562;2022-09-27T00:38:49;11.50;99.90
36586;DHT22;22591;48.314;11.562;2022-09-27T00:41:18;11.40;99.90
36586;DHT22;22591;48.314;11.562;2022-09-27T00:43:47;11.40;99.90
36586;DHT22;22591;48.314;11.562;2022-09-27T00:46:20;11.40;99.90
36586;DHT22;22591;48.314;11.562;2022-09-27T00:48:49;11.30;99.90
36586;DHT22;22591;48.314;11.562;2022-09-27T00:51:18;11.30;99.90
36586;DHT22;22591;48.314;11.562;2022-09-27T00:53:54;11.20;99.90
36586;DHT22;22591;48.314;11.562;2022-09-27T00:56:25;11.20;99.90
36586;DHT22;22591;48.314;11.562;2022-09-27T00:59:31;11.20;99.90
36586;DHT22;22591;48.314;11.562;2022-09-27T01:01:58;11.20;99.90
36586;DHT22;22591;48.314;11.562;2022-09-27T01:04:26;11.20;99.90
36586;DHT22;22591;48.314;11.562;2022-09-27T01:06:53;11.20;99.90
36586;DHT22;22591;48.314;11.562;2022-09-27T01:09:19;11.30;99.90
36586;DHT22;22591;48.314;11.562;2022-09-27T01:14:36;11.30;99.90
36586;DHT22;22591;48.314;11.562;2022-09-27T01:22:36;11.30;99.90
36586;DHT22;22591;48.314;11.562;2022-09-27T01:36:47;11.20;99.90
36586;DHT22;22591;48.314;11.562;2022-09-27T01:39:30;11.20;99.90
36586;DHT22;22591;48.314;11.562;2022-09-27T01:44:53;11.10;99.90
36586;DHT22;22591;48.314;11.562;2022-09-27T01:47:48;11.10;99.90
36586;DHT22;22591;48.314;11.562;2022-09-27T01:50:20;11.00;99.90
36586;DHT22;22591;48.314;11.562;2022-09-27T01:52:54;11.10;99.90
36586;DHT22;22591;48.314;11.562;2022-09-27T01:55:23;11.10;99.90
36586;DHT22;22591;48.314;11.562;2022-09-27T01:57:58;11.20;99.90
36586;DHT22;22591;48.314;11.562;2022-09-27T02:00:25;11.20;99.90
36586;DHT22;22591;48.314;11.562;2022-09-27T02:03:19;11.20;99.90
36586;DHT22;22591;48.314;11.562;2022-09-27T02:06:01;11.20;99.90
36586;DHT22;22591;48.314;11.562;2022-09-27T02:08:31;11.20;99.90
36586;DHT22;22591;48.314;11.562;2022-09-27T02:11:00;11.20;99.90
36586;DHT22;22591;48.314;11.562;2022-09-27T02:13:56;11.20;99.90
36586;DHT22;22591;48.314;11.562;2022-09-27T02:16:29;11.20;99.90
36586;DHT22;22591;48.314;11.562;2022-09-27T02:24:52;11.10;99.90
36586;DHT22;22591;48.314;11.562;2022-09-27T02:30:08;11.00;99.90
36586;DHT22;22591;48.314;11.562;2022-09-27T02:32:36;10.90;99.90
36586;DHT22;22591;48.314;11.562;2022-09-27T02:35:16;10.80;99.90
36586;DHT22;22591;48.314;11.562;2022-09-27T02:37:42;10.90;99.90
36586;DHT22;22591;48.314;11.562;2022-09-27T02:40:09;10.80;99.90
36586;DHT22;22591;48.314;11.562;2022-09-27T02:42:35;10.70;99.90
36586;DHT22;22591;48.314;11.562;2022-09-27T02:45:02;10.60;99.90
36586;DHT22;22591;48.314;11.562;2022-09-27T02:47:46;10.50;99.90
36586;DHT22;22591;48.314;11.562;2022-09-27T02:50:46;10.50;99.90
36586;DHT22;22591;48.314;11.562;2022-09-27T02:53:23;10.40;99.90
36586;DHT22;22591;48.314;11.562;2022-09-27T03:01:14;10.30;99.90
36586;DHT22;22591;48.314;11.562;2022-09-27T03:03:52;10.30;99.90
36586;DHT22;22591;48.314;11.562;2022-09-27T03:06:21;10.30;99.90
36586;DHT22;22591;48.314;11.562;2022-09-27T03:08:48;10.20;99.90
36586;DHT22;22591;48.314;11.562;2022-09-27T03:11:14;10.20;99.90
36586;DHT22;22591;48.314;11.562;2022-09-27T03:13:41;10.30;99.90
36586;DHT22;22591;48.314;11.562;2022-09-27T03:16:07;10.20;99.90
36586;DHT22;22591;48.314;11.562;2022-09-27T03:18:32;10.20;99.90
36586;DHT22;22591;48.314;11.562;2022-09-27T03:20:58;10.20;99.90
36586;DHT22;22591;48.314;11.562;2022-09-27T03:23:24;10.20;99.90
36586;DHT22;22591;48.314;11.562;2022-09-27T03:25:50;10.20;99.90
36586;DHT22;22591;48.314;11.562;2022-09-27T03:28:16;10.20;99.90
36586;DHT22;22591;48.314;11.562;2022-09-27T03:30:44;10.20;99.90
36586;DHT22;22591;48.314;11.562;2022-09-27T03:33:10;10.20;99.90
36586;DHT22;22591;48.314;11.562;2022-09-27T03:35:35;10.20;99.90
36586;DHT22;22591;48.314;11.562;2022-09-27T03:38:02;10.20;99.90
36586;DHT22;22591;48.314;11.562;2022-09-27T03:40:27;10.20;99.90
36586;DHT22;22591;48.314;11.562;2022-09-27T03:42:53;10.20;99.90
36586;DHT22;22591;48.314;11.562;2022-09-27T03:45:19;10.20;99.90
36586;DHT22;22591;48.314;11.562;2022-09-27T03:47:45;10.20;99.90
36586;DHT22;22591;48.314;11.562;2022-09-27T03:50:12;10.20;99.90
36586;DHT22;22591;48.314;11.562;2022-09-27T03:52:38;10.30;99.90
36586;DHT22;22591;48.314;11.562;2022-09-27T03:55:04;10.30;99.90
36586;DHT22;22591;48.314;11.562;2022-09-27T03:57:31;10.30;99.90
36586;DHT22;22591;48.314;11.562;2022-09-27T03:59:58;10.30;99.90
36586;DHT22;22591;48.314;11.562;2022-09-27T04:02:25;10.30;99.90
36586;DHT22;22591;48.314;11.562;2022-09-27T04:04:52;10.30;99.90
36586;DHT22;22591;48.314;11.562;2022-09-27T04:07:18;10.40;99.90
36586;DHT22;22591;48.314;11.562;2022-09-27T04:09:43;10.40;99.90
36586;DHT22;22591;48.314;11.562;2022-09-27T04:12:11;10.50;99.90
36586;DHT22;22591;48.314;11.562;2022-09-27T04:14:38;10.50;99.90
36586;DHT22;22591;48.314;11.562;2022-09-27T04:17:05;10.60;99.90
36586;DHT22;22591;48.314;11.562;2022-09-27T04:19:32;10.50;99.90
36586;DHT22;22591;48.314;11.562;2022-09-27T04:22:00;10.50;99.90
36586;DHT22;22591;48.314;11.562;2022-09-27T04:24:26;10.60;99.90
36586;DHT22;22591;48.314;11.562;2022-09-27T04:26:51;10.60;99.90
36586;DHT22;22591;48.314;11.562;2022-09-27T04:29:18;10.70;99.90
36586;DHT22;22591;48.314;11.562;2022-09-27T04:31:45;10.70;99.90
36586;DHT22;22591;48.314;11.562;2022-09-27T04:34:12;10.80;99.90
36586;DHT22;22591;48.314;11.562;2022-09-27T04:36:37;10.80;99.90
36586;DHT22;22591;48.314;11.562;2022-09-27T04:39:05;10.70;99.90
36586;DHT22;22591;48.314;11.562;2022-09-27T04:41:32;10.80;99.90
36586;DHT22;22591;48.314;11.562;2022-09-27T04:44:01;10.80;99.90
36586;DHT22;22591;48.314;11.562;2022-09-27T04:46:28;10.80;99.90
36586;DHT22;22591;48.314;11.562;2022-09-27T04:48:59;10.80;99.90
36586;DHT22;22591;48.314;11.562;2022-09-27T04:51:25;10.80;99.90
36586;DHT22;22591;48.314;11.562;2022-09-27T04:53:54;10.70;99.90
36586;DHT22;22591;48.314;11.562;2022-09-27T04:56:19;10.70;99.90
36586;DHT22;22591;48.314;11.562;2022-09-27T04:58:47;10.50;99.90
36586;DHT22;22591;48.314;11.562;2022-09-27T05:01:12;10.60;99.90
36586;DHT22;22591;48.314;11.562;2022-09-27T05:03:39;10.50;99.90
36586;DHT22;22591;48.314;11.562;2022-09-27T05:06:05;10.60;99.90
36586;DHT22;22591;48.314;11.562;2022-09-27T05:08:30;10.60;99.90
36586;DHT22;22591;48.314;11.562;2022-09-27T05:10:57;10.70;99.90
36586;DHT22;22591;48.314;11.562;2022-09-27T05:13:23;10.80;99.90
36586;DHT22;22591;48.314;11.562;2022-09-27T05:15:50;10.80;99.90
36586;DHT22;22591;48.314;11.562;2022-09-27T05:18:16;10.70;99.90
36586;DHT22;22591;48.314;11.562;2022-09-27T05:20:44;10.70;99.90
36586;DHT22;22591;48.314;11.562;2022-09-27T05:23:10;10.60;99.90
36586;DHT22;22591;48.314;11.562;2022-09-27T05:25:36;10.70;99.90
36586;DHT22;22591;48.314;11.562;2022-09-27T05:28:03;10.70;99.90
36586;DHT22;22591;48.314;11.562;2022-09-27T05:30:29;10.70;99.90
36586;DHT22;22591;48.314;11.562;2022-09-27T05:32:56;10.80;99.90
36586;DHT22;22591;48.314;11.562;2022-09-27T05:35:23;10.70;99.90
36586;DHT22;22591;48.314;11.562;2022-09-27T05:37:58;10.80;99.90
36586;DHT22;22591;48.314;11.562;2022-09-27T05:40:25;10.90;99.90
36586;DHT22;22591;48.314;11.562;2022-09-27T05:42:52;10.90;99.90
36586;DHT22;22591;48.314;11.562;2022-09-27T05:45:21;11.00;99.90
36586;DHT22;22591;48.314;11.562;2022-09-27T05:47:59;10.90;99.90
36586;DHT22;22591;48.314;11.562;2022-09-27T05:50:26;10.80;99.90
36586;DHT22;22591;48.314;11.562;2022-09-27T05:52:54;10.80;99.90
36586;DHT22;22591;48.314;11.562;2022-09-27T05:55:20;10.70;99.90
36586;DHT22;22591;48.314;11.562;2022-09-27T05:57:58;10.70;99.90
36586;DHT22;22591;48.314;11.562;2022-09-27T06:00:25;10.70;99.90
36586;DHT22;22591;48.314;11.562;2022-09-27T06:03:00;10.60;99.90
36586;DHT22;22591;48.314;11.562;2022-09-27T06:05:34;10.60;99.90
36586;DHT22;22591;48.314;11.562;2022-09-27T06:08:07;10.60;99.90
36586;DHT22;22591;48.314;11.562;2022-09-27T06:10:35;10.70;99.90
36586;DHT22;22591;48.314;11.562;2022-09-27T06:13:12;10.80;99.90
36586;DHT22;22591;48.314;11.562;2022-09-27T06:15:41;11.00;99.90
36586;DHT22;22591;48.314;11.562;2022-09-27T06:18:12;11.10;99.90
36586;DHT22;22591;48.314;11.562;2022-09-27T06:20:42;11.10;99.90
36586;DHT22;22591;48.314;11.562;2022-09-27T06:23:11;11.00;99.90
36586;DHT22;22591;48.314;11.562;2022-09-27T06:25:38;11.10;99.90
36586;DHT22;22591;48.314;11.562;2022-09-27T06:28:05;11.10;99.90
36586;DHT22;22591;48.314;11.562;2022-09-27T06:30:30;11.00;99.90
36586;DHT22;22591;48.314;11.562;2022-09-27T06:32:59;11.10;99.90
36586;DHT22;22591;48.314;11.562;2022-09-27T06:35:26;11.10;99.90
36586;DHT22;22591;48.314;11.562;2022-09-27T06:37:53;11.00;99.90
36586;DHT22;22591;48.314;11.562;2022-09-27T06:40:22;11.10;99.90
36586;DHT22;22591;48.314;11.562;2022-09-27T06:42:52;11.10;99.90
36586;DHT22;22591;48.314;11.562;2022-09-27T06:45:18;11.10;99.90
36586;DHT22;22591;48.314;11.562;2022-09-27T06:47:45;11.10;99.90
36586;DHT22;22591;48.314;11.562;2022-09-27T06:50:11;11.10;99.90
36586;DHT22;22591;48.314;11.562;2022-09-27T06:52:46;11.30;99.90
36586;DHT22;22591;48.314;11.562;2022-09-27T06:55:12;11.30;99.90
36586;DHT22;22591;48.314;11.562;2022-09-27T06:57:37;11.40;99.90
36586;DHT22;22591;48.314;11.562;2022-09-27T07:00:21;11.50;99.90
36586;DHT22;22591;48.314;11.562;2022-09-27T07:02:55;11.80;99.90
36586;DHT22;22591;48.314;11.562;2022-09-27T07:05:26;12.30;99.90
36586;DHT22;22591;48.314;11.562;2022-09-27T07:07:56;12.70;99.90
36586;DHT22;22591;48.314;11.562;2022-09-27T07:10:28;12.90;99.90
36586;DHT22;22591;48.314;11.562;2022-09-27T07:12:55;12.90;99.90
36586;DHT22;22591;48.314;11.562;2022-09-27T07:15:22;12.80;99.90
36586;DHT22;22591;48.314;11.562;2022-09-27T07:17:59;12.70;99.90
36586;DHT22;22591;48.314;11.562;2022-09-27T07:20:26;12.60;99.90
36586;DHT22;22591;48.314;11.562;2022-09-27T07:22:52;12.60;99.90
36586;DHT22;22591;48.314;11.562;2022-09-27T07:25:18;12.60;99.90
36586;DHT22;22591;48.314;11.562;2022-09-27T07:27:43;12.60;99.90
36586;DHT22;22591;48.314;11.562;2022-09-27T07:30:10;12.60;99.90
36586;DHT22;22591;48.314;11.562;2022-09-27T07:32:38;12.80;99.90
36586;DHT22;22591;48.314;11.562;2022-09-27T07:35:06;13.30;99.90
36586;DHT22;22591;48.314;11.562;2022-09-27T07:37:33;13.50;99.90
36586;DHT22;22591;48.314;11.562;2022-09-27T07:40:02;13.50;99.90
36586;DHT22;22591;48.314;11.562;2022-09-27T07:42:29;13.30;99.90
36586;DHT22;22591;48.314;11.562;2022-09-27T07:44:55;13.20;99.90
36586;DHT22;22591;48.314;11.562;2022-09-27T07:47:24;13.40;99.90
36586;DHT22;22591;48.314;11.562;2022-09-27T07:49:52;13.20;99.90
36586;DHT22;22591;48.314;11.562;2022-09-27T07:52:19;12.90;99.90
36586;DHT22;22591;48.314;11.562;2022-09-27T07:54:46;12.70;99.90
36586;DHT22;22591;48.314;11.562;2022-09-27T07:57:13;12.40;99.90
36586;DHT22;22591;48.314;11.562;2022-09-27T07:59:39;12.10;99.90
36586;DHT22;22591;48.314;11.562;2022-09-27T08:02:07;11.80;99.90
36586;DHT22;22591;48.314;11.562;2022-09-27T08:04:39;11.60;99.90
36586;DHT22;22591;48.314;11.562;2022-09-27T08:07:05;11.40;99.90
36586;DHT22;22591;48.314;11.562;2022-09-27T08:09:31;11.30;99.90
36586;DHT22;22591;48.314;11.562;2022-09-27T08:11:58;11.20;99.90
36586;DHT22;22591;48.314;11.562;2022-09-27T08:14:25;11.20;99.90
36586;DHT22;22591;48.314;11.562;2022-09-27T08:16:51;11.40;99.90
36586;DHT22;22591;48.314;11.562;2022-09-27T08:19:18;11.60;99.90
36586;DHT22;22591;48.314;11.562;2022-09-27T08:21:45;11.60;99.90
36586;DHT22;22591;48.314;11.562;2022-09-27T08:24:12;11.60;99.90
36586;DHT22;22591;48.314;11.562;2022-09-27T08:26:39;11.70;99.90
36586;DHT22;22591;48.314;11.562;2022-09-27T08:29:05;11.90;99.90
36586;DHT22;22591;48.314;11.562;2022-09-27T08:31:32;12.10;99.90
36586;DHT22;22591;48.314;11.562;2022-09-27T08:33:58;12.30;99.90
36586;DHT22;22591;48.314;11.562;2022-09-27T08:36:25;12.30;99.90
36586;DHT22;22591;48.314;11.562;2022-09-27T08:38:52;12.40;99.90
36586;DHT22;22591;48.314;11.562;2022-09-27T08:41:37;12.40;99.90
36586;DHT22;22591;48.314;11.562;2022-09-27T08:44:33;12.30;99.90
36586;DHT22;22591;48.314;11.562;2022-09-27T08:47:24;12.40;99.90
36586;DHT22;22591;48.314;11.562;2022-09-27T08:50:00;12.80;99.90
36586;DHT22;22591;48.314;11.562;2022-09-27T08:52:34;13.00;99.90
36586;DHT22;22591;48.314;11.562;2022-09-27T08:55:08;13.10;99.90
36586;DHT22;22591;48.314;11.562;2022-09-27T08:57:36;13.10;99.90
36586;DHT22;22591;48.314;11.562;2022-09-27T09:00:10;13.20;99.90
36586;DHT22;22591;48.314;11.562;2022-09-27T09:02:37;13.60;99.90
36586;DHT22;22591;48.314;11.562;2022-09-27T09:05:09;13.80;99.90
36586;DHT22;22591;48.314;11.562;2022-09-27T09:08:18;13.80;99.90
36586;DHT22;22591;48.314;11.562;2022-09-27T09:10:55;14.00;99.90
36586;DHT22;22591;48.314;11.562;2022-09-27T09:17:02;13.70;99.90
36586;DHT22;22591;48.314;11.562;2022-09-27T09:19:53;13.40;99.90
36586;DHT22;22591;48.314;11.562;2022-09-27T09:22:39;13.20;99.90
36586;DHT22;22591;48.314;11.562;2022-09-27T09:25:28;12.90;99.90
36586;DHT22;22591;48.314;11.562;2022-09-27T09:33:35;12.50;99.90
36586;DHT22;22591;48.314;11.562;2022-09-27T09:36:34;12.90;99.90
36586;DHT22;22591;48.314;11.562;2022-09-27T09:39:30;13.30;99.90
36586;DHT22;22591;48.314;11.562;2022-09-27T09:45:05;13.50;99.90
36586;DHT22;22591;48.314;11.562;2022-09-27T09:47:41;13.40;99.90
36586;DHT22;22591;48.314;11.562;2022-09-27T09:50:24;13.20;99.90
36586;DHT22;22591;48.314;11.562;2022-09-27T09:55:39;12.90;99.90
36586;DHT22;22591;48.314;11.562;2022-09-27T09:58:23;13.00;99.90
36586;DHT22;22591;48.314;11.562;2022-09-27T10:00:58;13.30;99.90
36586;DHT22;22591;48.314;11.562;2022-09-27T10:03:25;13.60;99.90
36586;DHT22;22591;48.314;11.562;2022-09-27T10:05:52;13.90;99.90
36586;DHT22;22591;48.314;11.562;2022-09-27T10:08:20;13.70;99.90
36586;DHT22;22591;48.314;11.562;2022-09-27T10:10:48;13.60;99.90
36586;DHT22;22591;48.314;11.562;2022-09-27T10:13:18;13.50;99.90
36586;DHT22;22591;48.314;11.562;2022-09-27T10:16:08;13.80;99.90
36586;DHT22;22591;48.314;11.562;2022-09-27T10:18:37;13.90;99.90
36586;DHT22;22591;48.314;11.562;2022-09-27T10:21:27;14.30;99.90
36586;DHT22;22591;48.314;11.562;2022-09-27T10:24:14;14.60;99.90
36586;DHT22;22591;48.314;11.562;2022-09-27T10:26:43;14.90;99.90
36586;DHT22;22591;48.314;11.562;2022-09-27T10:31:47;14.60;99.90
36586;DHT22;22591;48.314;11.562;2022-09-27T10:34:27;14.40;99.90
36586;DHT22;22591;48.314;11.562;2022-09-27T10:37:06;14.20;99.90
36586;DHT22;22591;48.314;11.562;2022-09-27T10:39:45;14.10;99.90
36586;DHT22;22591;48.314;11.562;2022-09-27T10:42:33;14.30;99.90
36586;DHT22;22591;48.314;11.562;2022-09-27T10:47:45;14.30;98.90
36586;DHT22;22591;48.314;11.562;2022-09-27T10:50:20;14.10;99.60
36586;DHT22;22591;48.314;11.562;2022-09-27T10:52:48;14.10;99.90
36586;DHT22;22591;48.314;11.562;2022-09-27T10:55:26;14.30;99.90
36586;DHT22;22591;48.314;11.562;2022-09-27T10:57:54;14.40;99.60
36586;DHT22;22591;48.314;11.562;2022-09-27T11:00:31;14.40;99.90
36586;DHT22;22591;48.314;11.562;2022-09-27T11:03:14;14.60;99.70
36586;DHT22;22591;48.314;11.562;2022-09-27T11:05:42;14.80;98.90
36586;DHT22;22591;48.314;11.562;2022-09-27T11:08:24;14.80;99.90
36586;DHT22;22591;48.314;11.562;2022-09-27T11:13:40;14.80;99.90
36586;DHT22;22591;48.314;11.562;2022-09-27T11:19:12;14.10;99.90
36586;DHT22;22591;48.314;11.562;2022-09-27T11:36:04;13.70;99.10
36586;DHT22;22591;48.314;11.562;2022-09-27T11:41:18;13.90;98.90
36586;DHT22;22591;48.314;11.562;2022-09-27T11:46:32;13.80;99.90
36586;DHT22;22591;48.314;11.562;2022-09-27T12:00:56;11.50;99.90
36586;DHT22;22591;48.314;11.562;2022-09-27T12:08:51;12.00;99.90
36586;DHT22;22591;48.314;11.562;2022-09-27T12:14:22;11.90;99.90
36586;DHT22;22591;48.314;11.562;2022-09-27T12:16:51;11.90;99.90
36586;DHT22;22591;48.314;11.562;2022-09-27T12:19:27;12.00;99.90
36586;DHT22;22591;48.314;11.562;2022-09-27T12:22:02;12.00;99.90
36586;DHT22;22591;48.314;11.562;2022-09-27T12:24:32;12.20;99.90
36586;DHT22;22591;48.314;11.562;2022-09-27T12:27:06;12.50;99.90
36586;DHT22;22591;48.314;11.562;2022-09-27T12:29:41;12.90;99.90
36586;DHT22;22591;48.314;11.562;2022-09-27T12:32:28;13.30;99.90
36586;DHT22;22591;48.314;11.562;2022-09-27T12:35:02;13.50;99.90
36586;DHT22;22591;48.314;11.562;2022-09-27T12:37:45;13.30;99.90
36586;DHT22;22591;48.314;11.562;2022-09-27T12:40:39;12.90;99.90
36586;DHT22;22591;48.314;11.562;2022-09-27T12:43:17;12.70;99.90
36586;DHT22;22591;48.314;11.562;2022-09-27T12:51:37;13.00;99.90
36586;DHT22;22591;48.314;11.562;2022-09-27T13:02:44;13.10;99.90
36586;DHT22;22591;48.314;11.562;2022-09-27T13:08:35;13.20;99.90
36586;DHT22;22591;48.314;11.562;2022-09-27T13:11:35;13.50;99.90
36586;DHT22;22591;48.314;11.562;2022-09-27T13:14:05;13.60;99.90
36586;DHT22;22591;48.314;11.562;2022-09-27T13:16:47;13.50;99.90
36586;DHT22;22591;48.314;11.562;2022-09-27T13:19:42;13.80;99.90
36586;DHT22;22591;48.314;11.562;2022-09-27T13:24:54;14.30;99.90
36586;DHT22;22591;48.314;11.562;2022-09-27T13:35:33;14.40;99.90
36586;DHT22;22591;48.314;11.562;2022-09-27T13:38:00;14.20;99.90
36586;DHT22;22591;48.314;11.562;2022-09-27T13:40:39;14.00;99.90
36586;DHT22;22591;48.314;11.562;2022-09-27T13:45:50;13.60;99.90
36586;DHT22;22591;48.314;11.562;2022-09-27T13:51:15;13.40;99.90
36586;DHT22;22591;48.314;11.562;2022-09-27T13:53:53;13.40;99.90
36586;DHT22;22591;48.314;11.562;2022-09-27T14:01:50;13.70;99.90
36586;DHT22;22591;48.314;11.562;2022-09-27T14:06:49;14.60;99.90
36586;DHT22;22591;48.314;11.562;2022-09-27T14:09:17;15.00;98.90
36586;DHT22;22591;48.314;11.562;2022-09-27T14:11:51;15.30;98.20
36586;DHT22;22591;48.314;11.562;2022-09-27T14:14:23;15.50;97.70
36586;DHT22;22591;48.314;11.562;2022-09-27T14:16:51;15.30;96.90
36586;DHT22;22591;48.314;11.562;2022-09-27T14:19:23;14.90;96.60
36586;DHT22;22591;48.314;11.562;2022-09-27T14:22:10;14.50;97.80
36586;DHT22;22591;48.314;11.562;2022-09-27T14:27:15;13.90;97.00
36586;DHT22;22591;48.314;11.562;2022-09-27T14:29:53;13.80;97.00
36586;DHT22;22591;48.314;11.562;2022-09-27T14:32:24;13.90;97.20
36586;DHT22;22591;48.314;11.562;2022-09-27T14:35:06;14.00;97.10
36586;DHT22;22591;48.314;11.562;2022-09-27T14:37:57;14.00;97.30
36586;DHT22;22591;48.314;11.562;2022-09-27T14:40:25;13.60;97.40
36586;DHT22;22591;48.314;11.562;2022-09-27T14:42:54;13.30;98.50
36586;DHT22;22591;48.314;11.562;2022-09-27T14:45:35;13.10;98.70
36586;DHT22;22591;48.314;11.562;2022-09-27T14:48:18;13.00;99.30
36586;DHT22;22591;48.314;11.562;2022-09-27T14:50:56;13.00;99.80
36586;DHT22;22591;48.314;11.562;2022-09-27T14:53:29;12.90;99.90
36586;DHT22;22591;48.314;11.562;2022-09-27T14:55:57;13.00;99.90
36586;DHT22;22591;48.314;11.562;2022-09-27T14:58:23;12.90;99.90
36586;DHT22;22591;48.314;11.562;2022-09-27T15:01:14;13.00;99.90
36586;DHT22;22591;48.314;11.562;2022-09-27T15:03:42;13.10;99.90
36586;DHT22;22591;48.314;11.562;2022-09-27T15:06:12;13.20;99.90
36586;DHT22;22591;48.314;11.562;2022-09-27T15:08:39;13.00;99.90
36586;DHT22;22591;48.314;11.562;2022-09-27T15:11:05;12.90;99.90
36586;DHT22;22591;48.314;11.562;2022-09-27T15:13:34;12.70;99.90
36586;DHT22;22591;48.314;11.562;2022-09-27T15:16:08;12.80;99.90
36586;DHT22;22591;48.314;11.562;2022-09-27T15:21:08;13.00;99.90
36586;DHT22;22591;48.314;11.562;2022-09-27T15:23:43;13.10;99.90
36586;DHT22;22591;48.314;11.562;2022-09-27T15:26:32;13.10;99.90
36586;DHT22;22591;48.314;11.562;2022-09-27T15:29:02;13.00;99.90
36586;DHT22;22591;48.314;11.562;2022-09-27T15:31:29;12.70;99.90
36586;DHT22;22591;48.314;11.562;2022-09-27T15:33:56;12.60;99.90
36586;DHT22;22591;48.314;11.562;2022-09-27T15:36:55;12.40;99.90
36586;DHT22;22591;48.314;11.562;2022-09-27T15:39:42;12.30;99.90
36586;DHT22;22591;48.314;11.562;2022-09-27T15:42:14;12.20;99.90
36586;DHT22;22591;48.314;11.562;2022-09-27T15:44:50;12.30;99.90
36586;DHT22;22591;48.314;11.562;2022-09-27T15:52:53;11.80;99.90
36586;DHT22;22591;48.314;11.562;2022-09-27T15:55:26;11.40;99.90
36586;DHT22;22591;48.314;11.562;2022-09-27T15:57:58;11.10;99.90
36586;DHT22;22591;48.314;11.562;2022-09-27T16:00:28;10.80;99.90
36586;DHT22;22591;48.314;11.562;2022-09-27T16:02:55;10.70;99.90
36586;DHT22;22591;48.314;11.562;2022-09-27T16:05:22;10.80;99.90
36586;DHT22;22591;48.314;11.562;2022-09-27T16:07:49;10.70;99.90
36586;DHT22;22591;48.314;11.562;2022-09-27T16:10:26;10.60;99.90
36586;DHT22;22591;48.314;11.562;2022-09-27T16:12:53;10.40;99.90
36586;DHT22;22591;48.314;11.562;2022-09-27T16:15:20;10.30;99.90
36586;DHT22;22591;48.314;11.562;2022-09-27T16:17:47;10.30;99.90
36586;DHT22;22591;48.314;11.562;2022-09-27T16:20:20;10.30;99.90
36586;DHT22;22591;48.314;11.562;2022-09-27T16:22:50;10.40;99.90
36586;DHT22;22591;48.314;11.562;2022-09-27T16:25:16;10.40;99.90
36586;DHT22;22591;48.314;11.562;2022-09-27T16:27:42;10.40;99.90
36586;DHT22;22591;48.314;11.562;2022-09-27T16:30:08;10.40;99.90
36586;DHT22;22591;48.314;11.562;2022-09-27T16:32:41;10.30;99.90
36586;DHT22;22591;48.314;11.562;2022-09-27T16:35:07;10.40;99.90
36586;DHT22;22591;48.314;11.562;2022-09-27T16:37:33;10.30;99.90
36586;DHT22;22591;48.314;11.562;2022-09-27T16:39:59;10.30;99.90
36586;DHT22;22591;48.314;11.562;2022-09-27T16:42:25;10.30;99.90
36586;DHT22;22591;48.314;11.562;2022-09-27T16:44:52;10.20;99.90
36586;DHT22;22591;48.314;11.562;2022-09-27T16:47:17;10.20;99.90
36586;DHT22;22591;48.314;11.562;2022-09-27T16:49:43;10.20;99.90
36586;DHT22;22591;48.314;11.562;2022-09-27T16:52:29;10.10;99.90
36586;DHT22;22591;48.314;11.562;2022-09-27T16:54:55;10.10;99.90
36586;DHT22;22591;48.314;11.562;2022-09-27T16:57:27;10.00;99.90
36586;DHT22;22591;48.314;11.562;2022-09-27T16:59:53;9.90;99.90
36586;DHT22;22591;48.314;11.562;2022-09-27T17:02:21;10.00;99.90
36586;DHT22;22591;48.314;11.562;2022-09-27T17:04:48;10.00;99.90
36586;DHT22;22591;48.314;11.562;2022-09-27T17:07:13;10.00;99.90
36586;DHT22;22591;48.314;11.562;2022-09-27T17:09:42;9.90;99.90
36586;DHT22;22591;48.314;11.562;2022-09-27T17:12:08;9.80;99.90
36586;DHT22;22591;48.314;11.562;2022-09-27T17:14:36;9.50;99.90
36586;DHT22;22591;48.314;11.562;2022-09-27T17:17:05;9.40;99.90
36586;DHT22;22591;48.314;11.562;2022-09-27T17:19:31;9.30;99.90
36586;DHT22;22591;48.314;11.562;2022-09-27T17:21:57;9.40;99.90
36586;DHT22;22591;48.314;11.562;2022-09-27T17:24:25;9.20;99.90
36586;DHT22;22591;48.314;11.562;2022-09-27T17:26:53;9.20;99.90
36586;DHT22;22591;48.314;11.562;2022-09-27T17:29:19;9.20;99.90
36586;DHT22;22591;48.314;11.562;2022-09-27T17:31:45;9.20;99.90
36586;DHT22;22591;48.314;11.562;2022-09-27T17:34:12;9.20;99.90
36586;DHT22;22591;48.314;11.562;2022-09-27T17:36:42;9.20;99.90
36586;DHT22;22591;48.314;11.562;2022-09-27T17:39:13;9.00;99.90
36586;DHT22;22591;48.314;11.562;2022-09-27T17:41:39;9.00;99.90
36586;DHT22;22591;48.314;11.562;2022-09-27T17:44:05;9.00;99.90
36586;DHT22;22591;48.314;11.562;2022-09-27T17:46:33;9.00;99.90
36586;DHT22;22591;48.314;11.562;2022-09-27T17:48:59;9.00;99.90
36586;DHT22;22591;48.314;11.562;2022-09-27T17:51:48;9.00;99.90
36586;DHT22;22591;48.314;11.562;2022-09-27T17:54:15;9.00;99.90
36586;DHT22;22591;48.314;11.562;2022-09-27T17:56:44;9.10;99.90
36586;DHT22;22591;48.314;11.562;2022-09-27T17:59:12;9.00;99.90
36586;DHT22;22591;48.314;11.562;2022-09-27T18:01:39;9.00;99.90
36586;DHT22;22591;48.314;11.562;2022-09-27T18:04:07;8.90;99.90
36586;DHT22;22591;48.314;11.562;2022-09-27T18:06:39;8.90;99.90
36586;DHT22;22591;48.314;11.562;2022-09-27T18:09:07;8.80;99.90
36586;DHT22;22591;48.314;11.562;2022-09-27T18:11:33;8.80;99.90
36586;DHT22;22591;48.314;11.562;2022-09-27T18:14:00;8.70;99.90
36586;DHT22;22591;48.314;11.562;2022-09-27T18:16:31;8.70;99.90
36586;DHT22;22591;48.314;11.562;2022-09-27T18:19:00;8.70;99.90